LD8571 / B-LDF 7700 Squawk Report (28th of July, 2020)

Aircraft A306 Reg No. B-LDF Age 15 years old
Model A300 Jet engines 2 First flight 25-11-04
Registered 11-03-05 Rollout 11-04 Delivered 11-03-05
Construction No. 860 Line No. N/A Series F4-605GF
ADSHEX 7801C0 Airline name Air Hong Kong Owner Cathay Pacific Airways/DHL Worldwide
Airfield based Chek Lap Kok~Hong Kong~B First tracked N/A

Flight history for B-LDF

Route Flight No Date Playback
Kansai (KIX) - Hong Kong Intl (HKG) LD225 2020-08-08 15:21:00
Hong Kong Intl (HKG) - Kansai (KIX) LD224 2020-08-08 10:18:00
Ninoy Aquino Intl (MNL) - Hong Kong Intl (HKG) LD3356 2020-08-08 06:23:00
Hong Kong Intl (HKG) - Ninoy Aquino Intl (MNL) LD3357 2020-08-07 22:57:00
Kansai (KIX) - Hong Kong Intl (HKG) LD205 2020-08-07 18:41:00
Hong Kong Intl (HKG) - Kansai (KIX) LD204 2020-08-07 13:03:00
Pudong (PVG) - Hong Kong Intl (HKG) LD3713 2020-08-07 08:03:00
Hong Kong Intl (HKG) - Pudong (PVG) LD3712 2020-08-07 02:12:00
Capital Intl (PEK) - Hong Kong Intl (HKG) LD769 2020-08-06 21:45:00
Hong Kong Intl (HKG) - Capital Intl (PEK) LD768 2020-08-06 13:50:00
Incheon International (ICN) - Hong Kong Intl (HKG) LD129 2020-08-05 17:56:00
Hong Kong Intl (HKG) - Incheon International (ICN) LD128 2020-08-05 12:56:00
Incheon International (ICN) - Hong Kong Intl (HKG) LD129 2020-08-04 15:57:00
Hong Kong Intl (HKG) - Incheon International (ICN) LD128 2020-08-04 11:04:00
Ninoy Aquino Intl (MNL) - Hong Kong Intl (HKG) LD456 2020-08-03 17:07:00
Hong Kong Intl (HKG) - Mactan-Cebu Intl (CEB) LD457 2020-08-03 10:12:00
???? LD3713 2020-08-03 05:11:00
???? LD3712 2020-08-03 03:13:00
???? LD3348 2020-08-02 02:49:00
???? LD3349 2020-08-02 01:09:00
Time Lat Lon Altitude Heading Speed Vertical Rate
2020-07-28 03:32:30 GMT 10.814758 106.659348 0 275 0 0
2020-07-28 03:32:30 GMT 10.814758 106.659348 0 275 0 0
2020-07-28 03:31:20 GMT 10.814758 106.659348 0 275 0 0
2020-07-28 03:31:05 GMT 10.814760 106.659348 0 275 0 0
2020-07-28 03:30:20 GMT 10.814758 106.659348 0 275 0 0
2020-07-28 03:29:59 GMT 10.814760 106.659332 0 275 0 0
2020-07-28 03:29:50 GMT 10.814758 106.659332 0 275 0 0
2020-07-28 03:29:10 GMT 10.814758 106.659348 0 275 0 0
2020-07-28 03:26:45 GMT 10.814760 106.659348 0 275 0 0
2020-07-28 03:26:40 GMT 10.814758 106.659348 0 275 0 0
2020-07-28 03:26:25 GMT 10.814760 106.659348 0 275 0 0
2020-07-28 03:26:00 GMT 10.814758 106.659348 0 275 0 0
2020-07-28 03:25:45 GMT 10.814760 106.659348 0 275 0 0
2020-07-28 03:25:35 GMT 10.814748 106.659348 0 275 0 0
2020-07-28 03:25:20 GMT 10.814758 106.659348 0 275 0 0
2020-07-28 03:24:59 GMT 10.814760 106.659332 0 275 0 0
2020-07-28 03:24:44 GMT 10.814758 106.659332 0 275 0 0
2020-07-28 03:24:39 GMT 10.814760 106.659332 0 275 0 0
2020-07-28 03:23:58 GMT 10.814758 106.659332 0 275 0 0
2020-07-28 03:23:43 GMT 10.814760 106.659348 0 275 0 0
2020-07-28 03:23:28 GMT 10.814758 106.659348 0 275 0 0
2020-07-28 03:23:18 GMT 10.814758 106.659332 0 275 0 0
2020-07-28 03:22:53 GMT 10.814760 106.659332 0 275 0 0
2020-07-28 03:22:37 GMT 10.814760 106.659348 0 275 0 0
2020-07-28 03:22:11 GMT 10.814771 106.659348 0 275 0 0
2020-07-28 03:21:55 GMT 10.814748 106.659355 0 275 0 0
2020-07-28 03:21:28 GMT 10.814758 106.659348 0 275 0 0
2020-07-28 03:20:33 GMT 10.814760 106.659348 0 275 0 0
2020-07-28 03:19:03 GMT 10.814760 106.659332 0 275 0 0
2020-07-28 03:18:45 GMT 10.814748 106.659325 0 275 0 0
2020-07-28 03:18:35 GMT 10.814758 106.659332 0 275 0 0
2020-07-28 03:17:45 GMT 10.814760 106.659348 0 275 0 0
2020-07-28 03:17:35 GMT 10.814771 106.659348 0 275 0 0
2020-07-28 03:17:30 GMT 10.814770 106.659348 0 275 0 0
2020-07-28 03:17:19 GMT 10.814760 106.659355 0 275 4 0
2020-07-28 03:17:09 GMT 10.814760 106.659332 0 275 0 0
2020-07-28 03:16:44 GMT 10.814758 106.659348 0 275 0 0
2020-07-28 03:16:37 GMT 10.814760 106.659348 0 275 0 0
2020-07-28 03:15:05 GMT 10.814760 106.659348 0 275 0 0
2020-07-28 03:14:06 GMT 10.814758 106.659348 0 275 0 0
2020-07-28 03:12:30 GMT 10.814758 106.659348 0 275 0 0
2020-07-28 03:09:48 GMT 10.814758 106.659348 0 275 0 0
2020-07-28 03:09:23 GMT 10.814748 106.659348 0 275 0 0
2020-07-28 03:09:08 GMT 10.814758 106.659348 0 275 0 0
2020-07-28 03:09:03 GMT 10.814760 106.659348 0 275 0 0
2020-07-28 03:07:43 GMT 10.814760 106.659348 0 275 0 0
2020-07-28 03:07:08 GMT 10.814758 106.659348 0 275 0 0
2020-07-28 03:06:53 GMT 10.814760 106.659348 0 275 0 0
2020-07-28 03:06:34 GMT 10.814758 106.659348 0 275 0 0
2020-07-28 03:06:18 GMT 10.814760 106.659348 0 275 0 0
2020-07-28 03:04:12 GMT 10.814758 106.659348 0 275 0 0
2020-07-28 03:03:37 GMT 10.814748 106.659348 0 275 0 0
2020-07-28 03:03:22 GMT 10.814747 106.659348 0 275 0 0
2020-07-28 03:02:57 GMT 10.814748 106.659348 0 275 0 0
2020-07-28 03:02:26 GMT 10.814747 106.659348 0 275 0 0
2020-07-28 03:02:01 GMT 10.814748 106.659348 0 275 0 0
2020-07-28 03:01:46 GMT 10.814747 106.659348 0 275 0 0
2020-07-28 03:01:26 GMT 10.814748 106.659348 0 275 0 0
2020-07-28 03:01:21 GMT 10.814747 106.659348 0 275 0 0
2020-07-28 03:01:11 GMT 10.814748 106.659348 0 275 0 0
2020-07-28 03:00:06 GMT 10.814747 106.659348 0 275 0 0
2020-07-28 02:59:51 GMT 10.814748 106.659348 0 275 0 0
2020-07-28 02:59:21 GMT 10.814748 106.659332 0 275 0 0
2020-07-28 02:58:56 GMT 10.814758 106.659332 0 275 0 0
2020-07-28 02:58:51 GMT 10.814748 106.659332 0 275 0 0
2020-07-28 02:58:36 GMT 10.814758 106.659332 0 275 0 0
2020-07-28 02:58:19 GMT 10.814748 106.659325 0 275 0 0
2020-07-28 02:58:05 GMT 10.814748 106.659332 0 275 0 0
2020-07-28 02:57:55 GMT 10.814748 106.659348 0 275 0 0
2020-07-28 02:57:24 GMT 10.814758 106.659332 0 275 0 0
2020-07-28 02:56:29 GMT 10.814748 106.659332 0 275 0 0
2020-07-28 02:52:10 GMT 10.814758 106.659348 0 275 0 0
2020-07-28 02:51:45 GMT 10.814748 106.659348 0 275 0 0
2020-07-28 02:51:40 GMT 10.814758 106.659348 0 275 0 0
2020-07-28 02:49:40 GMT 10.814758 106.659348 0 275 0 0
2020-07-28 02:46:35 GMT 10.814748 106.659332 0 275 0 0
2020-07-28 02:46:17 GMT 10.814748 106.659355 0 275 0 0
2020-07-28 02:46:05 GMT 10.814748 106.659348 0 275 0 0
2020-07-28 02:45:47 GMT 10.814748 106.659332 0 275 0 0
We lost coverage of the aircraft here for a total of 7 minutes
2020-07-28 02:38:41 GMT 10.814748 106.659348 0 275 2 0
2020-07-28 02:38:27 GMT 10.814737 106.659561 0 275 7 0
2020-07-28 02:38:20 GMT 10.814713 106.659821 0 278 10 0
2020-07-28 02:38:11 GMT 10.814690 106.660179 0 281 11 0
2020-07-28 02:38:01 GMT 10.814946 106.660378 0 182 9 0
2020-07-28 02:37:51 GMT 10.815435 106.660416 0 188 13 0
2020-07-28 02:37:40 GMT 10.816063 106.660484 0 185 13 0
2020-07-28 02:37:30 GMT 10.816635 106.660545 0 185 13 0
2020-07-28 02:37:18 GMT 10.817250 106.660431 0 120 13 0
2020-07-28 02:37:07 GMT 10.817111 106.659721 0 70 19 0
2020-07-28 02:36:57 GMT 10.816785 106.658806 0 70 22 0
2020-07-28 02:36:46 GMT 10.816406 106.657768 0 70 22 0
2020-07-28 02:36:34 GMT 10.815994 106.656754 0 67 21 0
2020-07-28 02:36:04 GMT 10.814993 106.654114 0 70 20 0
2020-07-28 02:35:57 GMT 10.814748 106.653458 0 70 19 0
2020-07-28 02:31:00 GMT 10.817482 106.653000 0 247 63 0
2020-07-28 02:30:52 GMT 10.818489 106.655785 0 247 82 0
2020-07-28 02:30:40 GMT 10.820446 106.661064 125 250 120 0
2020-07-28 02:30:29 GMT 10.822678 106.666824 125 250 140 -128
2020-07-28 02:30:19 GMT 10.825071 106.673630 275 250 140 -512
2020-07-28 02:30:09 GMT 10.827492 106.679802 400 250 140 -768
2020-07-28 02:29:58 GMT 10.830093 106.686623 525 250 138 -640
2020-07-28 02:29:47 GMT 10.832613 106.693436 675 249 144 -960
2020-07-28 02:29:36 GMT 10.835220 106.700500 800 250 146 -448
2020-07-28 02:29:25 GMT 10.837873 106.707069 925 249 153 -1024
2020-07-28 02:29:15 GMT 10.840666 106.714493 1,075 250 154 -768
2020-07-28 02:29:04 GMT 10.843369 106.722046 1,200 250 156 -1024
2020-07-28 02:28:53 GMT 10.846206 106.729622 1,350 250 156 -576
2020-07-28 02:28:42 GMT 10.848952 106.736465 1,475 250 155 -896
2020-07-28 02:28:31 GMT 10.851837 106.744019 1,625 250 156 -640
2020-07-28 02:28:21 GMT 10.854678 106.751549 1,775 250 155 -512
2020-07-28 02:28:10 GMT 10.857330 106.759171 1,900 250 161 -832
2020-07-28 02:27:58 GMT 10.860626 106.768028 2,075 250 170 -704
2020-07-28 02:27:50 GMT 10.863419 106.775742 2,175 250 174 -448
2020-07-28 02:27:47 GMT 10.863693 106.775696 2,175 250 174 -448
2020-07-28 02:27:41 GMT 10.865707 106.781807 2,175 249 173 0
2020-07-28 02:27:38 GMT 10.866440 106.783318 2,175 249 173 64
2020-07-28 02:27:31 GMT 10.868912 106.789520 2,200 249 178 -64
2020-07-28 02:27:26 GMT 10.869873 106.792603 2,200 249 177 -64
2020-07-28 02:27:10 GMT 10.875183 106.805290 2,175 250 188 -128
2020-07-28 02:26:48 GMT 10.880035 106.824570 2,175 274 194 -192
2020-07-28 02:26:44 GMT 10.879715 106.828117 2,200 278 192 -128
2020-07-28 02:26:30 GMT 10.878159 106.840668 2,200 278 191 64
2020-07-28 02:26:22 GMT 10.877256 106.847099 2,200 278 198 0
2020-07-28 02:26:12 GMT 10.875916 106.857475 2,175 278 206 64
2020-07-28 02:26:00 GMT 10.874496 106.869125 2,175 277 210 0
2020-07-28 02:25:53 GMT 10.873489 106.877037 2,200 294 217 -64
2020-07-28 02:25:50 GMT 10.873169 106.879074 2,200 281 214 192
2020-07-28 02:25:43 GMT 10.871391 106.884926 2,175 294 217 -64
2020-07-28 02:25:39 GMT 10.869690 106.888588 2,175 302 218 -128
2020-07-28 02:25:32 GMT 10.864929 106.895271 2,200 315 219 -64
2020-07-28 02:25:28 GMT 10.862549 106.898155 2,200 319 221 -64
2020-07-28 02:25:17 GMT 10.853256 106.903984 2,175 336 231 64
2020-07-28 02:25:07 GMT 10.842016 106.906998 2,175 355 246 128
2020-07-28 02:24:56 GMT 10.829086 106.907867 2,200 358 254 -64
2020-07-28 02:24:49 GMT 10.821300 106.908295 2,200 358 256 -128
2020-07-28 02:24:41 GMT 10.811711 106.908775 2,200 358 253 0
2020-07-28 02:24:35 GMT 10.804216 106.909164 2,200 358 257 -64
2020-07-28 02:24:21 GMT 10.787271 106.910034 2,200 358 264 -64
2020-07-28 02:24:17 GMT 10.780792 106.910324 2,200 357 267 -128
2020-07-28 02:24:12 GMT 10.776398 106.910561 2,200 358 269 -128
2020-07-28 02:24:05 GMT 10.767114 106.911041 2,200 358 275 0
2020-07-28 02:24:02 GMT 10.763763 106.911224 2,200 358 275 0
2020-07-28 02:23:51 GMT 10.749005 106.912010 2,200 358 288 0
2020-07-28 02:23:37 GMT 10.730430 106.913071 2,200 358 306 64
2020-07-28 02:22:39 GMT 10.641283 106.917404 2,550 358 342 -1408
2020-07-28 02:22:36 GMT 10.633974 106.917740 2,550 358 342 -1408
2020-07-28 02:22:30 GMT 10.626709 106.918137 2,675 358 346 -2048
2020-07-28 02:22:25 GMT 10.618845 106.918510 2,850 358 347 -2304
2020-07-28 02:22:15 GMT 10.601481 106.919472 3,225 358 350 -2432
2020-07-28 02:22:04 GMT 10.584274 106.920410 3,625 358 353 -2432
2020-07-28 02:21:57 GMT 10.570633 106.921074 3,975 358 354 -2240
2020-07-28 02:21:53 GMT 10.566194 106.921303 4,075 358 355 -1856
2020-07-28 02:21:42 GMT 10.548365 106.922028 4,425 358 359 -1728
2020-07-28 02:21:31 GMT 10.529938 106.922829 4,725 358 363 -1472
2020-07-28 02:21:21 GMT 10.511542 106.923622 5,000 358 368 -1536
2020-07-28 02:21:10 GMT 10.492996 106.924438 5,275 358 371 -1664
2020-07-28 02:21:00 GMT 10.475235 106.925148 5,575 358 374 -2112
2020-07-28 02:20:48 GMT 10.455865 106.926003 5,975 358 375 -2240
2020-07-28 02:20:38 GMT 10.437286 106.926857 6,350 358 378 -2624
2020-07-28 02:20:27 GMT 10.417832 106.927803 6,850 358 379 -3008
2020-07-28 02:20:21 GMT 10.405609 106.928398 7,175 358 380 -3008
2020-07-28 02:20:16 GMT 10.399491 106.928650 7,325 358 380 -2944
2020-07-28 02:20:05 GMT 10.379837 106.929558 7,825 358 382 -2752
2020-07-28 02:19:55 GMT 10.360759 106.930496 8,275 358 385 -2688
2020-07-28 02:19:44 GMT 10.341202 106.931465 8,750 358 388 -2816
2020-07-28 02:19:33 GMT 10.321655 106.932396 9,225 358 390 -2688
2020-07-28 02:19:22 GMT 10.302429 106.933296 9,675 358 393 -2688
2020-07-28 02:19:12 GMT 10.282516 106.934357 10,125 358 396 -2816
2020-07-28 02:19:01 GMT 10.262767 106.935379 10,625 358 398 -2944
2020-07-28 02:18:50 GMT 10.242508 106.936447 11,100 358 401 -2368
2020-07-28 02:18:43 GMT 10.226944 106.937149 11,375 358 404 -1664
2020-07-28 02:18:40 GMT 10.222961 106.937332 11,450 358 404 -1600
2020-07-28 02:18:27 GMT 10.200165 106.938400 11,725 358 406 -1536
2020-07-28 02:18:18 GMT 10.182083 106.939384 11,950 358 408 -1472
2020-07-28 02:18:07 GMT 10.160585 106.940300 12,200 358 411 -1536
2020-07-28 02:17:56 GMT 10.140289 106.941292 12,475 358 414 -1536
2020-07-28 02:17:45 GMT 10.119432 106.942291 12,750 358 416 -1536
2020-07-28 02:17:35 GMT 10.099229 106.943192 13,000 358 417 -1472
2020-07-28 02:17:24 GMT 10.077347 106.944176 13,275 358 418 -1536
We lost coverage of the aircraft here for a total of 8 minutes
2020-07-28 02:09:19 GMT 9.402761 107.234421 31,975 215 479 0
2020-07-28 02:09:09 GMT 9.421242 107.247307 31,975 215 480 0
2020-07-28 02:08:58 GMT 9.440369 107.261620 32,000 216 481 64
2020-07-28 02:08:48 GMT 9.459686 107.274422 32,000 215 480 0
2020-07-28 02:08:37 GMT 9.479246 107.288742 32,000 215 480 -64
2020-07-28 02:08:26 GMT 9.499329 107.302864 31,975 215 480 0
2020-07-28 02:08:15 GMT 9.519886 107.317009 32,000 215 480 0
2020-07-28 02:08:04 GMT 9.539246 107.331161 31,975 215 480 0
2020-07-28 02:07:54 GMT 9.558243 107.344109 31,975 216 481 0
2020-07-28 02:07:43 GMT 9.577515 107.357002 32,000 216 481 -64
2020-07-28 02:07:33 GMT 9.597442 107.371277 32,000 215 480 -64
2020-07-28 02:07:19 GMT 9.622348 107.389366 31,975 216 481 -64
2020-07-28 02:07:10 GMT 9.637989 107.399689 31,975 215 481 64
2020-07-28 02:06:57 GMT 9.661697 107.416451 32,000 215 481 -64
2020-07-28 02:06:49 GMT 9.676814 107.428108 32,000 215 481 128
2020-07-28 02:06:38 GMT 9.697037 107.442383 31,975 215 481 0
2020-07-28 02:06:28 GMT 9.716354 107.455322 32,000 216 481 64
2020-07-28 02:06:17 GMT 9.735609 107.469444 32,000 216 481 -64
2020-07-28 02:06:06 GMT 9.755301 107.482422 32,000 216 480 0
2020-07-28 02:05:55 GMT 9.775452 107.496704 32,000 216 481 0
2020-07-28 02:05:45 GMT 9.795429 107.510979 31,975 216 481 0
2020-07-28 02:05:34 GMT 9.814453 107.525146 31,975 216 481 0
2020-07-28 02:05:23 GMT 9.834859 107.539345 32,000 216 481 0
2020-07-28 02:05:13 GMT 9.853898 107.552414 32,000 216 481 -64
2020-07-28 02:05:01 GMT 9.874374 107.566628 32,000 216 480 64
2020-07-28 02:04:48 GMT 9.898636 107.584785 32,000 216 480 0
2020-07-28 02:04:40 GMT 9.913010 107.595161 32,000 216 481 0
2020-07-28 02:04:29 GMT 9.933037 107.609474 32,000 216 481 0
2020-07-28 02:04:19 GMT 9.952031 107.622589 32,000 216 481 0
2020-07-28 02:04:08 GMT 9.972015 107.637062 32,000 216 480 0
2020-07-28 02:03:57 GMT 9.991833 107.651482 32,000 216 481 0
2020-07-28 02:03:46 GMT 10.011059 107.664688 32,000 216 481 0
2020-07-28 02:03:39 GMT 10.028143 107.677757 32,000 215 482 0
2020-07-28 02:03:36 GMT 10.030884 107.679047 32,000 215 482 0
2020-07-28 02:03:28 GMT 10.046578 107.690498 32,000 214 483 -64
2020-07-28 02:03:25 GMT 10.050209 107.693054 32,000 214 482 -64
2020-07-28 02:03:18 GMT 10.065478 107.702904 32,000 214 482 0
2020-07-28 02:03:06 GMT 10.086548 107.716667 31,975 214 482 64
2020-07-28 02:02:56 GMT 10.107562 107.730278 31,975 214 482 -64
2020-07-28 02:02:46 GMT 10.127609 107.743851 32,000 214 480 64
2020-07-28 02:02:35 GMT 10.146194 107.756187 32,000 214 481 -64
2020-07-28 02:02:23 GMT 10.167847 107.769722 32,000 214 481 128
2020-07-28 02:02:12 GMT 10.187027 107.783279 31,975 213 482 0
2020-07-28 02:02:03 GMT 10.206528 107.795708 31,975 214 482 -64
2020-07-28 02:01:52 GMT 10.228546 107.810425 32,000 213 481 0
2020-07-28 02:01:40 GMT 10.247589 107.822807 32,000 213 483 64
2020-07-28 02:01:29 GMT 10.269051 107.836449 31,975 213 483 0
2020-07-28 02:01:20 GMT 10.288925 107.849899 32,000 213 483 -64
2020-07-28 02:01:07 GMT 10.312500 107.864746 32,000 213 482 0
2020-07-28 02:00:58 GMT 10.330124 107.877174 32,000 214 483 0
2020-07-28 02:00:46 GMT 10.349945 107.889656 32,000 214 485 0
2020-07-28 02:00:21 GMT 10.398376 107.922516 32,000 214 485 0
2020-07-28 02:00:15 GMT 10.410461 107.930153 32,000 214 484 -64
2020-07-28 01:59:53 GMT 10.451752 107.957901 31,975 214 484 64
2020-07-28 01:59:32 GMT 10.491852 107.985329 32,000 213 484 0
2020-07-28 01:59:24 GMT 10.502790 107.991463 32,000 213 483 0
2020-07-28 01:59:20 GMT 10.513497 107.998688 32,000 212 483 -64
2020-07-28 01:59:14 GMT 10.523026 108.004601 32,000 212 483 0
2020-07-28 01:59:10 GMT 10.533515 108.010399 32,000 211 482 -64
2020-07-28 01:59:07 GMT 10.536447 108.012566 32,000 210 482 -64
2020-07-28 01:58:59 GMT 10.553238 108.022453 32,000 208 482 64
2020-07-28 01:58:56 GMT 10.558090 108.024590 32,000 208 481 0
2020-07-28 01:58:48 GMT 10.575211 108.032494 31,975 205 482 0
2020-07-28 01:58:37 GMT 10.598419 108.042679 31,975 200 481 0
2020-07-28 01:58:27 GMT 10.621824 108.050056 32,000 195 479 0
2020-07-28 01:58:15 GMT 10.644681 108.055069 32,000 191 479 0
2020-07-28 01:58:05 GMT 10.667908 108.059250 32,000 190 479 -64
2020-07-28 01:57:54 GMT 10.691932 108.064026 32,000 194 479 0
2020-07-28 01:57:44 GMT 10.715378 108.071182 32,000 201 481 0
2020-07-28 01:57:32 GMT 10.738996 108.080940 31,975 207 482 64
2020-07-28 01:57:21 GMT 10.757896 108.091347 31,975 208 482 -64
2020-07-28 01:57:11 GMT 10.780334 108.102722 32,000 208 481 0
2020-07-28 01:57:01 GMT 10.800156 108.113190 32,000 208 481 -64
2020-07-28 01:56:50 GMT 10.822278 108.124504 32,000 208 480 0
2020-07-28 01:56:38 GMT 10.844925 108.135963 31,975 208 481 64
2020-07-28 01:56:28 GMT 10.865106 108.147537 32,000 208 481 0
2020-07-28 01:56:17 GMT 10.887817 108.158936 31,975 208 482 0
2020-07-28 01:56:04 GMT 10.912079 108.171478 32,000 208 483 0
2020-07-28 01:55:53 GMT 10.933817 108.182999 32,000 208 482 64
2020-07-28 01:55:42 GMT 10.954742 108.194542 31,975 208 483 0
2020-07-28 01:55:35 GMT 10.972549 108.204056 32,000 208 482 0
2020-07-28 01:55:19 GMT 11.001597 108.218750 31,975 208 482 0
2020-07-28 01:55:10 GMT 11.019379 108.228165 31,975 208 482 -64
2020-07-28 01:54:59 GMT 11.040515 108.239761 32,000 208 482 -64
2020-07-28 01:54:49 GMT 11.061557 108.250267 32,000 208 482 0
2020-07-28 01:54:41 GMT 11.079437 108.259705 32,000 208 481 0
2020-07-28 01:54:38 GMT 11.083328 108.261833 32,000 208 481 64
2020-07-28 01:54:27 GMT 11.104431 108.273300 32,000 208 481 0
2020-07-28 01:54:16 GMT 11.126495 108.284851 32,000 208 481 -64
2020-07-28 01:54:07 GMT 11.144885 108.294357 32,000 208 481 64
2020-07-28 01:53:58 GMT 11.165089 108.304909 32,000 208 482 0
2020-07-28 01:53:46 GMT 11.187992 108.317535 32,000 208 482 -64
2020-07-28 01:53:36 GMT 11.206846 108.328133 32,000 208 482 0
2020-07-28 01:53:24 GMT 11.230499 108.339783 32,000 208 482 64
2020-07-28 01:53:15 GMT 11.250366 108.350388 31,975 208 482 0
2020-07-28 01:53:01 GMT 11.277420 108.365211 32,000 208 482 -64
2020-07-28 01:52:53 GMT 11.293533 108.373642 32,000 208 481 0
2020-07-28 01:52:41 GMT 11.316376 108.386330 31,975 208 482 0
2020-07-28 01:52:30 GMT 11.336060 108.396935 32,000 208 482 0
2020-07-28 01:51:38 GMT 11.440247 108.451729 31,975 208 483 0
2020-07-28 01:51:34 GMT 11.447342 108.455894 31,975 208 483 -64
2020-07-28 01:51:27 GMT 11.465012 108.464371 32,000 208 483 0
2020-07-28 01:51:13 GMT 11.489372 108.478134 32,000 208 482 0
2020-07-28 01:51:02 GMT 11.510834 108.488708 32,000 208 482 0
2020-07-28 01:50:55 GMT 11.528366 108.498138 32,000 208 481 -64
2020-07-28 01:50:51 GMT 11.532665 108.500305 32,000 208 481 0
2020-07-28 01:50:43 GMT 11.551620 108.510780 32,000 208 482 0
2020-07-28 01:50:38 GMT 11.558807 108.515038 32,000 208 482 0
2020-07-28 01:50:30 GMT 11.575699 108.523468 32,000 208 482 64
2020-07-28 01:50:19 GMT 11.596395 108.535187 31,975 208 482 64
2020-07-28 01:50:08 GMT 11.619324 108.546814 31,975 208 482 0
2020-07-28 01:49:58 GMT 11.639420 108.557472 32,000 208 481 0
2020-07-28 01:49:47 GMT 11.660265 108.569160 32,000 208 481 -64
2020-07-28 01:49:36 GMT 11.681534 108.580772 32,000 208 481 0
2020-07-28 01:49:25 GMT 11.703233 108.591423 32,000 208 481 0
2020-07-28 01:49:15 GMT 11.724693 108.603081 32,000 208 481 0
2020-07-28 01:49:04 GMT 11.746078 108.614677 31,975 208 482 0
2020-07-28 01:48:53 GMT 11.767614 108.626358 31,975 208 482 0
2020-07-28 01:48:42 GMT 11.788470 108.636909 31,975 208 482 0
2020-07-28 01:48:31 GMT 11.811699 108.649246 32,000 207 482 0
2020-07-28 01:48:21 GMT 11.831717 108.659409 32,000 207 481 -64
2020-07-28 01:48:10 GMT 11.853470 108.670509 31,975 207 482 0
2020-07-28 01:47:59 GMT 11.875662 108.681725 32,000 207 482 64
2020-07-28 01:47:49 GMT 11.896238 108.691795 32,000 207 482 -64
2020-07-28 01:47:38 GMT 11.918152 108.702850 32,000 207 482 0
2020-07-28 01:47:27 GMT 11.939904 108.713905 32,000 207 482 -64
2020-07-28 01:47:15 GMT 11.963104 108.724915 32,000 206 483 0
2020-07-28 01:47:03 GMT 11.987946 108.738052 31,975 209 483 -64
2020-07-28 01:46:20 GMT 12.070679 108.789276 32,000 212 481 -64
2020-07-28 01:46:11 GMT 12.086884 108.798889 31,975 212 480 0
2020-07-28 01:46:01 GMT 12.106654 108.812012 32,000 212 480 0
2020-07-28 01:45:50 GMT 12.128311 108.825073 32,000 212 478 0
2020-07-28 01:45:39 GMT 12.147853 108.838226 32,000 212 478 0
2020-07-28 01:45:26 GMT 12.173218 108.853767 32,000 212 479 0
2020-07-28 01:45:17 GMT 12.188919 108.863289 32,000 212 478 0
2020-07-28 01:45:07 GMT 12.208743 108.876389 31,975 212 478 0
2020-07-28 01:44:56 GMT 12.229523 108.889473 31,975 212 478 64
2020-07-28 01:44:45 GMT 12.249664 108.901505 31,975 212 478 -64
2020-07-28 01:44:35 GMT 12.269401 108.914505 32,000 212 478 0
2020-07-28 01:44:23 GMT 12.291138 108.927597 32,000 212 477 64
2020-07-28 01:44:13 GMT 12.310043 108.939484 31,975 212 477 -64
We lost coverage of the aircraft here for a total of 83 minutes
2020-07-28 00:21:20 GMT 21.989649 113.844963 13,575 171 346 3264
2020-07-28 00:21:16 GMT 21.994400 113.844124 13,475 171 345 3584
2020-07-28 00:21:06 GMT 22.011063 113.839928 12,950 163 346 3904
2020-07-28 00:20:57 GMT 22.023630 113.834938 12,225 155 348 5184
2020-07-28 00:19:53 GMT 22.123993 113.799080 8,625 172 341 3264
2020-07-28 00:19:44 GMT 22.137684 113.797096 8,175 172 339 3200
2020-07-28 00:19:30 GMT 22.157867 113.794090 7,550 171 334 2624
2020-07-28 00:19:23 GMT 22.170593 113.792191 7,275 171 327 1920
2020-07-28 00:19:11 GMT 22.185772 113.789619 7,000 171 314 1664
2020-07-28 00:19:01 GMT 22.201042 113.787537 6,725 172 300 1600
2020-07-28 00:18:51 GMT 22.215317 113.785553 6,425 173 284 1728
2020-07-28 00:18:40 GMT 22.228973 113.783974 6,150 174 270 1472
2020-07-28 00:18:30 GMT 22.241867 113.784126 5,625 191 257 2624
2020-07-28 00:18:19 GMT 22.254089 113.789597 5,450 218 246 1280
2020-07-28 00:18:07 GMT 22.261885 113.799438 5,100 239 239 2688
2020-07-28 00:17:58 GMT 22.267611 113.809814 4,650 242 235 2560
2020-07-28 00:17:46 GMT 22.273087 113.820953 4,300 241 227 1280
2020-07-28 00:17:36 GMT 22.279062 113.831482 4,075 241 213 1280
2020-07-28 00:17:26 GMT 22.283766 113.840385 3,875 241 197 1344
2020-07-28 00:17:16 GMT 22.288141 113.848572 3,625 241 178 1408
2020-07-28 00:17:05 GMT 22.292633 113.857010 3,425 241 169 1856
2020-07-28 00:16:53 GMT 22.296986 113.864998 3,000 241 167 2560
2020-07-28 00:16:46 GMT 22.299454 113.870049 2,750 241 166 2432
2020-07-28 00:16:42 GMT 22.301010 113.872940 2,575 242 165 2432
2020-07-28 00:16:39 GMT 22.302567 113.875885 2,425 244 165 2368
2020-07-28 00:16:33 GMT 22.304581 113.880280 2,200 246 164 2560
2020-07-28 00:16:28 GMT 22.306156 113.884026 1,975 249 163 3136
2020-07-28 00:16:21 GMT 22.307787 113.888649 1,675 251 164 3328
2020-07-28 00:16:12 GMT 22.310301 113.896538 1,175 252 166 3200
2020-07-28 00:16:01 GMT 22.313141 113.905251 600 252 167 3264
2020-07-28 00:15:49 GMT 22.315886 113.914131 125 251 170 384
2020-07-28 00:15:43 GMT 22.317341 113.917923 0 250 155
2020-07-28 00:15:33 GMT 22.319469 113.924522 0 250 105
2020-07-28 00:15:26 GMT 22.320293 113.927399 0 250 70
2020-07-28 00:15:22 GMT 22.320694 113.928513 0 250 48
2020-07-28 00:15:12 GMT 22.321217 113.929993 0 250 17
2020-07-28 00:15:08 GMT 22.321321 113.930267 0 253 14
2020-07-28 00:14:53 GMT 22.321472 113.931099 0 340 14
2020-07-28 00:14:47 GMT 22.321129 113.931328 0 340 14
2020-07-28 00:14:40 GMT 22.320717 113.931480 0 343 14
2020-07-28 00:14:23 GMT 22.319832 113.931297 0 70 18
2020-07-28 00:14:20 GMT 22.319727 113.930946 0 70 21
2020-07-28 00:14:09 GMT 22.319342 113.929787 0 70 28
2020-07-28 00:13:59 GMT 22.318874 113.928276 0 70 30
2020-07-28 00:13:47 GMT 22.318388 113.926735 0 70 30
2020-07-28 00:13:38 GMT 22.317934 113.925377 0 70 28
2020-07-28 00:13:30 GMT 22.317650 113.924500 0 70 26
2020-07-28 00:13:20 GMT 22.317259 113.923279 0 70 21
2020-07-28 00:13:07 GMT 22.316887 113.922142 0 70 20
2020-07-28 00:13:01 GMT 22.316677 113.921516 0 70 19
2020-07-28 00:12:47 GMT 22.316322 113.920433 0 70 17
2020-07-28 00:12:44 GMT 22.316235 113.920135 0 70 16
2020-07-28 00:12:32 GMT 22.316002 113.919411 0 70 13
2020-07-28 00:12:17 GMT 22.315641 113.918610 0 25 14
2020-07-28 00:12:08 GMT 22.315071 113.918686 0 343 15
2020-07-28 00:11:54 GMT 22.314091 113.919044 0 340 18
2020-07-28 00:11:45 GMT 22.313381 113.919319 0 340 17
2020-07-28 00:11:25 GMT 22.311974 113.919823 0 343 16
2020-07-28 00:11:05 GMT 22.310715 113.920319 0 343 16
2020-07-28 00:10:57 GMT 22.310219 113.920479 0 343 15
2020-07-28 00:10:49 GMT 22.309650 113.920685 0 340 15
2020-07-28 00:10:27 GMT 22.308332 113.921181 0 340 15
2020-07-28 00:10:15 GMT 22.307556 113.921471 0 340 14
2020-07-28 00:10:05 GMT 22.307053 113.921661 0 340 14
2020-07-28 00:09:56 GMT 22.306446 113.921867 0 334 15
2020-07-28 00:09:46 GMT 22.305851 113.921883 0 45 16
2020-07-28 00:09:36 GMT 22.305531 113.921181 0 70 18
2020-07-28 00:09:31 GMT 22.305412 113.920769 0 70 18
2020-07-28 00:09:28 GMT 22.305296 113.920425 0 70 18
2020-07-28 00:09:23 GMT 22.305153 113.920021 0 70 18
2020-07-28 00:09:16 GMT 22.305004 113.919533 0 73 18
2020-07-28 00:09:07 GMT 22.304760 113.918816 0 70 18
2020-07-28 00:09:04 GMT 22.304684 113.918571 0 70 18
2020-07-28 00:09:00 GMT 22.304562 113.918167 0 70 17
2020-07-28 00:08:56 GMT 22.304457 113.917862 0 70 17
2020-07-28 00:08:50 GMT 22.304329 113.917496 0 70 16
2020-07-28 00:08:44 GMT 22.304213 113.917137 0 70 15
2020-07-28 00:08:35 GMT 22.303997 113.916435 0 70 13
2020-07-28 00:08:28 GMT 22.303894 113.916100 0 70 12
2020-07-28 00:08:23 GMT 22.303791 113.915787 0 70 11

Making use of Plane Finder data

You are free to use the raw flight data, aircraft information and images provided in this report for your own purposes provided the data is correctly attributed to Plane Finder. We ask that you please credit Plane Finder and link to planefinder.net in close proximity to the content.

Optionally one of the following logos (no smaller then 150x24px) can be used and must link to planefinder.net

Embedding the Plane Finder map

You are welcome to embed the Plane Finder playback map on your website to offer visitors a more interactive experience. We suggest using the following HTML code:

<iframe src="//planefinder.net/data/report/LD8571-B-LDF-7700-squawk-2020-07-28/map" width="800" height="600" seamless="seamless"></iframe>

Where our data comes from

Plane Finder has a global network of data feeds and antenna radars that receive data broadcast directly from aircraft. The primary technologies used are ADS-B and MLAT. We also show feeds from the FAA and a FLARM glider feed.

Click here to find out more about the Plane Finder network.

How we collect our data